Flight Track Log - Related Links

Times and Time Zones

All times are in EDT time to prevent confusion due to time zone crossing. See the USC105 flight status page for this flight to view local times or setup timezone preferences in your user account.

Time Position Orientation Groundspeed Altitude Reporting Facility
EDT Latitude Longitude Course Direction KTS MPH feet Rate Location/Type
Fri 05:14:34 AM 41.8667 -88.2667 180° South 88 101 2,600  Level Chicago TRACON
Fri 05:15:34 AM 41.8500 -88.2667 180° South 107 123 3,700 944 Climbing Chicago TRACON
Fri 05:16:22 AM 41.8317 -88.2419 135° Southeast 125 144 4,300 889 Climbing Chicago Center
Fri 05:17:22 AM 41.8050 -88.2036 133° Southeast 136 157 5,300 950 Climbing Chicago Center
Fri 05:18:22 AM 41.7764 -88.1608 132° Southeast 149 171 6,200 744 Climbing Chicago Center
Fri 05:19:23 AM 41.7831 -88.0833 83° East 174 200 6,800 344 Climbing Chicago Center
Fri 05:20:24 AM 41.7900 -88.0156 82° East 180 207 6,900 99 Climbing Chicago Center
Fri 05:21:24 AM 41.8003 -87.9425 79° East 194 223 7,000  Climbing Chicago Center
Fri 05:22:25 AM 41.8097 -87.8678 80° East 201 231 6,900  Descending Chicago Center
Fri 05:23:25 AM 41.8192 -87.7933 80° East 203 234 7,000 50 Climbing Chicago Center
Fri 05:24:26 AM 41.8286 -87.7200 80° East 201 231 7,000  Level Chicago Center
Fri 05:25:26 AM 41.8375 -87.6453 81° East 205 236 7,000 -50 Level Chicago Center
Fri 05:26:27 AM 41.8467 -87.5703 81° East 205 236 6,900 -50 Descending Chicago Center
Fri 05:27:27 AM 41.8556 -87.4964 81° East 203 234 6,900 50 Level Chicago Center
Fri 05:28:28 AM 41.8644 -87.4217 81° East 204 235 7,000  Climbing Chicago Center
Fri 05:29:28 AM 41.8725 -87.3494 81° East 199 229 6,900 -50 Descending Chicago Center
Fri 05:30:29 AM 41.8817 -87.2758 80° East 199 229 6,900  Level Chicago Center
Fri 05:31:29 AM 41.8892 -87.2008 82° East 201 231 6,900  Level Chicago Center
Fri 05:32:30 AM 41.8981 -87.1281 81° East 198 228 6,900  Level Chicago Center
Fri 05:33:30 AM 41.9053 -87.0514 83° East 205 236 6,900  Level Chicago Center
Fri 05:34:30 AM 41.9147 -86.9772 80° East 203 234 6,900  Level Chicago Center
Fri 05:35:31 AM 41.9231 -86.9028 81° East 202 232 6,900  Level Chicago Center
Fri 05:36:31 AM 41.9303 -86.8261 83° East 205 236 6,900  Level Chicago Center
Fri 05:37:32 AM 41.9386 -86.7503 82° East 205 236 6,900  Level Chicago Center
Fri 05:38:32 AM 41.9467 -86.6714 82° East 207 238 6,900  Level Chicago Center
Fri 05:39:33 AM 41.9542 -86.5944 83° East 208 239 6,900  Level Chicago Center
Fri 05:40:33 AM 41.9622 -86.5189 82° East 205 236 6,900  Level Chicago Center
Fri 05:41:34 AM 41.9706 -86.4425 82° East 206 237 6,900  Level Chicago Center
Fri 05:42:34 AM 41.9783 -86.3664 82° East 206 237 6,900  Level Chicago Center
Fri 05:43:35 AM 41.9875 -86.2906 81° East 206 237 6,900  Level Chicago Center
Fri 05:44:35 AM 41.9944 -86.2142 83° East 207 238 6,900  Level Chicago Center
Fri 05:45:35 AM 42.0028 -86.1378 82° East 206 237 6,900  Level Chicago Center
Fri 05:46:36 AM 42.0108 -86.0611 82° East 206 237 6,900  Level Chicago Center
Fri 05:47:36 AM 42.0189 -85.9850 82° East 207 238 6,900  Level Chicago Center
Fri 05:48:37 AM 42.0264 -85.9094 82° East 205 236 6,900  Level Chicago Center
Fri 05:49:37 AM 42.0347 -85.8336 82° East 205 236 6,900  Level Chicago Center
Fri 05:50:38 AM 42.0419 -85.7564 83° East 207 238 6,900  Level Chicago Center
Fri 05:51:38 AM 42.0511 -85.6653 82° East 206 237 6,900  Level Chicago Center
Fri 05:52:39 AM 42.0578 -85.5883 83° East 206 237 6,900  Level Chicago Center
Fri 05:53:39 AM 42.0658 -85.5119 82° East 207 238 6,900  Level Chicago Center
Fri 05:54:40 AM 42.0736 -85.4350 82° East 207 238 6,900  Level Chicago Center
Fri 05:55:40 AM 42.0808 -85.3586 83° East 206 237 6,900  Level Chicago Center
Fri 05:56:40 AM 42.0875 -85.2828 83° East 205 236 6,900  Level Chicago Center
Fri 05:57:41 AM 42.0953 -85.2067 82° East 204 235 6,900  Level Chicago Center
Fri 05:58:41 AM 42.1017 -85.1300 84° East 206 237 6,900  Level Chicago Center
Fri 05:59:42 AM 42.1097 -85.0544 82° East 204 235 6,900  Level Chicago Center
Fri 06:00:42 AM 42.1161 -84.9781 84° East 204 235 6,900  Level Chicago Center
Fri 06:02:43 AM 42.1294 -84.8264 83° East 204 235 6,900  Level Chicago Center
Fri 06:03:44 AM 42.1369 -84.7503 82° East 205 236 6,900  Level Chicago Center
Fri 06:04:44 AM 42.1439 -84.6744 83° East 204 235 6,900  Level Chicago Center
Fri 06:05:44 AM 42.1500 -84.5992 84° East 203 234 6,900 75 Level Chicago Center
Fri 06:06:04 AM 42.1514 -84.5692 86° East 204 235 7,000 -207 Climbing Cleveland Center
Fri 06:07:11 AM 42.1583 -84.4825 84° East 211 243 6,600 -492 Descending Cleveland Center
Fri 06:08:06 AM 42.1672 -84.4075 81° East 217 250 6,000 -661 Descending Cleveland Center
Fri 06:09:18 AM 42.1722 -84.3153 86° East 206 237 5,200 -496 Descending Cleveland Center
Fri 06:10:07 AM 42.1803 -84.2597 79° East 201 231 5,000 -109 Descending Cleveland Center
Fri 06:11:08 AM 42.1847 -84.1900 85° East 187 215 5,000  Level Cleveland Center
Fri 06:12:09 AM 42.1911 -84.1203 83° East 187 215 5,000  Level Cleveland Center
Fri 06:13:15 AM 42.1978 -84.0392 84° East 185 213 5,000  Level Cleveland Center
Fri 06:14:04 AM 42.2036 -83.9833 82° East 182 209 5,000 -310 Level Cleveland Center
Fri 06:15:11 AM 42.2100 -83.9081 83° East 190 219 4,400 -672 Descending Cleveland Center
Fri 06:16:18 AM 42.2247 -83.8247 77° East 202 232 3,500 -661 Descending Cleveland Center
Fri 06:17:18 AM 42.2414 -83.7556 72° East 192 221 3,000 -248 Descending Cleveland Center
Fri 06:18:19 AM 42.2392 -83.6853 92° East 178 205 3,000 -344 Level Cleveland Center
Fri 06:19:20 AM 42.2406 -83.6292 88° East 146 168 2,300 -787 Descending Cleveland Center
Fri 06:20:21 AM 42.2419 -83.5758 88° East 139 160 1,400 -885 Descending Cleveland Center
Fri 06:22:00 AM 42.2393 -83.5310 90° East  Level Estimated
Fri 06:29:00 AM 42.2393 -83.5310 90° East  Level Estimated
Fri 06:30:00 AM 42.2393 -83.5310 90° East  Level Estimated

Login

Don't have an account? Register now (free) for customized features, flight alerts, and more!